sensor_id;sensor_type;location;lat;lon;timestamp;temperature;humidity
59313;DHT22;45084;51.486;7.366;2023-10-31T00:01:51;12.40;99.90
59313;DHT22;45084;51.486;7.366;2023-10-31T00:04:16;12.40;99.90
59313;DHT22;45084;51.486;7.366;2023-10-31T00:06:42;12.40;99.90
59313;DHT22;45084;51.486;7.366;2023-10-31T00:09:10;12.30;99.90
59313;DHT22;45084;51.486;7.366;2023-10-31T00:11:36;12.20;99.90
59313;DHT22;45084;51.486;7.366;2023-10-31T00:14:02;12.10;99.90
59313;DHT22;45084;51.486;7.366;2023-10-31T00:16:28;12.10;99.90
59313;DHT22;45084;51.486;7.366;2023-10-31T00:18:54;11.90;99.90
59313;DHT22;45084;51.486;7.366;2023-10-31T00:21:19;11.80;99.90
59313;DHT22;45084;51.486;7.366;2023-10-31T00:23:46;11.60;99.90
59313;DHT22;45084;51.486;7.366;2023-10-31T00:26:12;11.50;99.90
59313;DHT22;45084;51.486;7.366;2023-10-31T00:28:38;11.40;99.90
59313;DHT22;45084;51.486;7.366;2023-10-31T00:31:03;11.30;99.90
59313;DHT22;45084;51.486;7.366;2023-10-31T00:33:37;11.20;99.90
59313;DHT22;45084;51.486;7.366;2023-10-31T00:36:03;11.20;99.90
59313;DHT22;45084;51.486;7.366;2023-10-31T00:38:29;11.10;99.90
59313;DHT22;45084;51.486;7.366;2023-10-31T00:40:55;11.10;99.90
59313;DHT22;45084;51.486;7.366;2023-10-31T00:43:20;11.00;99.90
59313;DHT22;45084;51.486;7.366;2023-10-31T00:45:46;11.00;99.90
59313;DHT22;45084;51.486;7.366;2023-10-31T00:48:11;11.00;99.90
59313;DHT22;45084;51.486;7.366;2023-10-31T00:50:37;10.90;99.90
59313;DHT22;45084;51.486;7.366;2023-10-31T00:53:03;10.90;99.90
59313;DHT22;45084;51.486;7.366;2023-10-31T00:55:28;10.80;99.90
59313;DHT22;45084;51.486;7.366;2023-10-31T00:57:55;10.80;99.90
59313;DHT22;45084;51.486;7.366;2023-10-31T01:00:21;10.70;99.90
59313;DHT22;45084;51.486;7.366;2023-10-31T01:02:46;10.80;99.90
59313;DHT22;45084;51.486;7.366;2023-10-31T01:05:12;10.80;99.90
59313;DHT22;45084;51.486;7.366;2023-10-31T01:07:37;10.70;99.90
59313;DHT22;45084;51.486;7.366;2023-10-31T01:10:04;10.70;99.90
59313;DHT22;45084;51.486;7.366;2023-10-31T01:12:30;10.70;99.90
59313;DHT22;45084;51.486;7.366;2023-10-31T01:14:56;10.60;99.90
59313;DHT22;45084;51.486;7.366;2023-10-31T01:17:22;10.60;99.90
59313;DHT22;45084;51.486;7.366;2023-10-31T01:19:47;10.60;99.90
59313;DHT22;45084;51.486;7.366;2023-10-31T01:22:13;10.60;99.90
59313;DHT22;45084;51.486;7.366;2023-10-31T01:24:39;10.60;99.90
59313;DHT22;45084;51.486;7.366;2023-10-31T01:27:04;10.50;99.90
59313;DHT22;45084;51.486;7.366;2023-10-31T01:29:30;10.50;99.90
59313;DHT22;45084;51.486;7.366;2023-10-31T01:31:56;10.40;99.90
59313;DHT22;45084;51.486;7.366;2023-10-31T01:34:21;10.40;99.90
59313;DHT22;45084;51.486;7.366;2023-10-31T01:36:47;10.40;99.90
59313;DHT22;45084;51.486;7.366;2023-10-31T01:39:13;10.40;99.90
59313;DHT22;45084;51.486;7.366;2023-10-31T01:41:41;10.30;99.90
59313;DHT22;45084;51.486;7.366;2023-10-31T01:44:07;10.30;99.90
59313;DHT22;45084;51.486;7.366;2023-10-31T01:46:33;10.30;99.90
59313;DHT22;45084;51.486;7.366;2023-10-31T01:48:58;10.30;99.90
59313;DHT22;45084;51.486;7.366;2023-10-31T01:51:25;10.30;99.90
59313;DHT22;45084;51.486;7.366;2023-10-31T01:53:52;10.30;99.90
59313;DHT22;45084;51.486;7.366;2023-10-31T01:56:18;10.30;99.90
59313;DHT22;45084;51.486;7.366;2023-10-31T01:58:44;10.20;99.90
59313;DHT22;45084;51.486;7.366;2023-10-31T02:01:11;10.20;99.90
59313;DHT22;45084;51.486;7.366;2023-10-31T02:03:38;10.20;99.90
59313;DHT22;45084;51.486;7.366;2023-10-31T02:06:04;10.20;99.90
59313;DHT22;45084;51.486;7.366;2023-10-31T02:08:30;10.20;99.90
59313;DHT22;45084;51.486;7.366;2023-10-31T02:10:55;10.20;99.90
59313;DHT22;45084;51.486;7.366;2023-10-31T02:13:21;10.10;99.90
59313;DHT22;45084;51.486;7.366;2023-10-31T02:15:47;10.10;99.90
59313;DHT22;45084;51.486;7.366;2023-10-31T02:18:12;10.20;99.90
59313;DHT22;45084;51.486;7.366;2023-10-31T02:20:38;10.10;99.90
59313;DHT22;45084;51.486;7.366;2023-10-31T02:23:04;10.20;99.90
59313;DHT22;45084;51.486;7.366;2023-10-31T02:25:30;10.20;99.90
59313;DHT22;45084;51.486;7.366;2023-10-31T02:27:57;10.20;99.90
59313;DHT22;45084;51.486;7.366;2023-10-31T02:30:23;10.20;99.90
59313;DHT22;45084;51.486;7.366;2023-10-31T02:32:50;10.10;99.90
59313;DHT22;45084;51.486;7.366;2023-10-31T02:35:16;10.20;99.90
59313;DHT22;45084;51.486;7.366;2023-10-31T02:37:43;10.10;99.90
59313;DHT22;45084;51.486;7.366;2023-10-31T02:40:09;10.10;99.90
59313;DHT22;45084;51.486;7.366;2023-10-31T02:42:35;10.10;99.90
59313;DHT22;45084;51.486;7.366;2023-10-31T02:45:00;10.10;99.90
59313;DHT22;45084;51.486;7.366;2023-10-31T02:47:26;10.10;99.90
59313;DHT22;45084;51.486;7.366;2023-10-31T02:49:52;10.10;99.90
59313;DHT22;45084;51.486;7.366;2023-10-31T02:52:17;10.00;99.90
59313;DHT22;45084;51.486;7.366;2023-10-31T02:54:43;10.00;99.90
59313;DHT22;45084;51.486;7.366;2023-10-31T02:57:09;10.00;99.90
59313;DHT22;45084;51.486;7.366;2023-10-31T02:59:35;10.00;99.90
59313;DHT22;45084;51.486;7.366;2023-10-31T03:02:01;9.90;99.90
59313;DHT22;45084;51.486;7.366;2023-10-31T03:04:26;9.90;99.90
59313;DHT22;45084;51.486;7.366;2023-10-31T03:06:52;9.90;99.90
59313;DHT22;45084;51.486;7.366;2023-10-31T03:09:17;9.90;99.90
59313;DHT22;45084;51.486;7.366;2023-10-31T03:11:44;9.80;99.90
59313;DHT22;45084;51.486;7.366;2023-10-31T03:14:10;9.80;99.90
59313;DHT22;45084;51.486;7.366;2023-10-31T03:16:35;9.80;99.90
59313;DHT22;45084;51.486;7.366;2023-10-31T03:19:01;9.90;99.90
59313;DHT22;45084;51.486;7.366;2023-10-31T03:21:27;9.80;99.90
59313;DHT22;45084;51.486;7.366;2023-10-31T03:23:53;9.80;99.90
59313;DHT22;45084;51.486;7.366;2023-10-31T03:26:21;9.90;99.90
59313;DHT22;45084;51.486;7.366;2023-10-31T03:28:46;9.90;99.90
59313;DHT22;45084;51.486;7.366;2023-10-31T03:31:13;10.00;99.90
59313;DHT22;45084;51.486;7.366;2023-10-31T03:33:38;9.90;99.90
59313;DHT22;45084;51.486;7.366;2023-10-31T03:36:05;10.00;99.90
59313;DHT22;45084;51.486;7.366;2023-10-31T03:38:31;9.90;99.90
59313;DHT22;45084;51.486;7.366;2023-10-31T03:40:57;9.90;99.90
59313;DHT22;45084;51.486;7.366;2023-10-31T03:43:22;9.90;99.90
59313;DHT22;45084;51.486;7.366;2023-10-31T03:45:48;9.90;99.90
59313;DHT22;45084;51.486;7.366;2023-10-31T03:48:15;9.90;99.90
59313;DHT22;45084;51.486;7.366;2023-10-31T03:50:41;9.90;99.90
59313;DHT22;45084;51.486;7.366;2023-10-31T03:53:07;10.00;99.90
59313;DHT22;45084;51.486;7.366;2023-10-31T03:55:32;10.00;99.90
59313;DHT22;45084;51.486;7.366;2023-10-31T03:57:58;10.00;99.90
59313;DHT22;45084;51.486;7.366;2023-10-31T04:00:23;10.00;99.90
59313;DHT22;45084;51.486;7.366;2023-10-31T04:02:49;10.00;99.90
59313;DHT22;45084;51.486;7.366;2023-10-31T04:05:15;10.00;99.90
59313;DHT22;45084;51.486;7.366;2023-10-31T04:07:40;10.00;99.90
59313;DHT22;45084;51.486;7.366;2023-10-31T04:10:07;10.00;99.90
59313;DHT22;45084;51.486;7.366;2023-10-31T04:12:33;10.00;99.90
59313;DHT22;45084;51.486;7.366;2023-10-31T04:14:58;9.90;99.90
59313;DHT22;45084;51.486;7.366;2023-10-31T04:17:24;9.90;99.90
59313;DHT22;45084;51.486;7.366;2023-10-31T04:19:50;9.90;99.90
59313;DHT22;45084;51.486;7.366;2023-10-31T04:22:16;9.90;99.90
59313;DHT22;45084;51.486;7.366;2023-10-31T04:24:41;9.90;99.90
59313;DHT22;45084;51.486;7.366;2023-10-31T04:27:07;9.90;99.90
59313;DHT22;45084;51.486;7.366;2023-10-31T04:29:33;9.90;99.90
59313;DHT22;45084;51.486;7.366;2023-10-31T04:31:58;9.90;99.90
59313;DHT22;45084;51.486;7.366;2023-10-31T04:34:24;9.90;99.90
59313;DHT22;45084;51.486;7.366;2023-10-31T04:36:49;9.90;99.90
59313;DHT22;45084;51.486;7.366;2023-10-31T04:39:15;9.90;99.90
59313;DHT22;45084;51.486;7.366;2023-10-31T04:41:41;9.90;99.90
59313;DHT22;45084;51.486;7.366;2023-10-31T04:44:06;9.90;99.90
59313;DHT22;45084;51.486;7.366;2023-10-31T04:46:32;9.90;99.90
59313;DHT22;45084;51.486;7.366;2023-10-31T04:48:57;9.90;99.90
59313;DHT22;45084;51.486;7.366;2023-10-31T04:51:23;9.90;99.90
59313;DHT22;45084;51.486;7.366;2023-10-31T04:53:49;9.90;99.90
59313;DHT22;45084;51.486;7.366;2023-10-31T04:56:15;9.90;99.90
59313;DHT22;45084;51.486;7.366;2023-10-31T04:58:42;9.90;99.90
59313;DHT22;45084;51.486;7.366;2023-10-31T05:01:12;9.90;99.90
59313;DHT22;45084;51.486;7.366;2023-10-31T05:03:38;9.90;99.90
59313;DHT22;45084;51.486;7.366;2023-10-31T05:06:04;10.00;99.90
59313;DHT22;45084;51.486;7.366;2023-10-31T05:08:30;10.00;99.90
59313;DHT22;45084;51.486;7.366;2023-10-31T05:10:56;10.00;99.90
59313;DHT22;45084;51.486;7.366;2023-10-31T05:16:44;10.00;99.90
59313;DHT22;45084;51.486;7.366;2023-10-31T05:19:10;10.00;99.90
59313;DHT22;45084;51.486;7.366;2023-10-31T05:21:36;10.00;99.90
59313;DHT22;45084;51.486;7.366;2023-10-31T05:24:01;10.00;99.90
59313;DHT22;45084;51.486;7.366;2023-10-31T05:26:27;10.00;99.90
59313;DHT22;45084;51.486;7.366;2023-10-31T05:28:56;10.00;99.90
59313;DHT22;45084;51.486;7.366;2023-10-31T05:31:26;10.00;99.90
59313;DHT22;45084;51.486;7.366;2023-10-31T05:33:52;10.00;99.90
59313;DHT22;45084;51.486;7.366;2023-10-31T05:36:22;10.00;99.90
59313;DHT22;45084;51.486;7.366;2023-10-31T05:38:48;10.00;99.90
59313;DHT22;45084;51.486;7.366;2023-10-31T05:41:15;10.00;99.90
59313;DHT22;45084;51.486;7.366;2023-10-31T05:43:40;10.00;99.90
59313;DHT22;45084;51.486;7.366;2023-10-31T05:46:07;10.00;99.90
59313;DHT22;45084;51.486;7.366;2023-10-31T05:48:42;10.00;99.90
59313;DHT22;45084;51.486;7.366;2023-10-31T05:51:12;10.00;99.90
59313;DHT22;45084;51.486;7.366;2023-10-31T05:53:39;10.00;99.90
59313;DHT22;45084;51.486;7.366;2023-10-31T05:56:06;10.00;99.90
59313;DHT22;45084;51.486;7.366;2023-10-31T05:58:32;10.00;99.90
59313;DHT22;45084;51.486;7.366;2023-10-31T06:00:58;9.90;99.90
59313;DHT22;45084;51.486;7.366;2023-10-31T06:03:24;9.90;99.90
59313;DHT22;45084;51.486;7.366;2023-10-31T06:05:49;9.90;99.90
59313;DHT22;45084;51.486;7.366;2023-10-31T06:08:17;9.90;99.90
59313;DHT22;45084;51.486;7.366;2023-10-31T06:10:43;9.80;99.90
59313;DHT22;45084;51.486;7.366;2023-10-31T06:13:09;9.90;99.90
59313;DHT22;45084;51.486;7.366;2023-10-31T06:15:35;9.90;99.90
59313;DHT22;45084;51.486;7.366;2023-10-31T06:18:00;9.90;99.90
59313;DHT22;45084;51.486;7.366;2023-10-31T06:20:26;10.00;99.90
59313;DHT22;45084;51.486;7.366;2023-10-31T06:22:51;10.00;99.90
59313;DHT22;45084;51.486;7.366;2023-10-31T06:25:17;10.00;99.90
59313;DHT22;45084;51.486;7.366;2023-10-31T06:27:43;9.90;99.90
59313;DHT22;45084;51.486;7.366;2023-10-31T06:30:09;10.00;99.90
59313;DHT22;45084;51.486;7.366;2023-10-31T06:32:35;10.00;99.90
59313;DHT22;45084;51.486;7.366;2023-10-31T06:35:00;10.00;99.90
59313;DHT22;45084;51.486;7.366;2023-10-31T06:37:26;10.00;99.90
59313;DHT22;45084;51.486;7.366;2023-10-31T06:39:51;10.00;99.90
59313;DHT22;45084;51.486;7.366;2023-10-31T06:42:17;10.00;99.90
59313;DHT22;45084;51.486;7.366;2023-10-31T06:44:42;9.90;99.90
59313;DHT22;45084;51.486;7.366;2023-10-31T06:47:08;10.00;99.90
59313;DHT22;45084;51.486;7.366;2023-10-31T06:49:33;10.00;99.90
59313;DHT22;45084;51.486;7.366;2023-10-31T06:51:59;9.90;99.90
59313;DHT22;45084;51.486;7.366;2023-10-31T06:54:25;9.90;99.90
59313;DHT22;45084;51.486;7.366;2023-10-31T06:56:50;10.00;99.90
59313;DHT22;45084;51.486;7.366;2023-10-31T06:59:17;10.00;99.90
59313;DHT22;45084;51.486;7.366;2023-10-31T07:01:43;10.00;99.90
59313;DHT22;45084;51.486;7.366;2023-10-31T07:04:10;10.00;99.90
59313;DHT22;45084;51.486;7.366;2023-10-31T07:06:36;9.90;99.90
59313;DHT22;45084;51.486;7.366;2023-10-31T07:09:01;10.00;99.90
59313;DHT22;45084;51.486;7.366;2023-10-31T07:11:30;10.00;99.90
59313;DHT22;45084;51.486;7.366;2023-10-31T07:14:02;10.10;99.90
59313;DHT22;45084;51.486;7.366;2023-10-31T07:16:28;10.10;99.90
59313;DHT22;45084;51.486;7.366;2023-10-31T07:18:54;10.10;99.90
59313;DHT22;45084;51.486;7.366;2023-10-31T07:21:20;10.10;99.90
59313;DHT22;45084;51.486;7.366;2023-10-31T07:23:45;10.10;99.90
59313;DHT22;45084;51.486;7.366;2023-10-31T07:26:11;10.10;99.90
59313;DHT22;45084;51.486;7.366;2023-10-31T07:28:37;10.10;99.90
59313;DHT22;45084;51.486;7.366;2023-10-31T07:31:02;10.10;99.90
59313;DHT22;45084;51.486;7.366;2023-10-31T07:33:29;10.10;99.90
59313;DHT22;45084;51.486;7.366;2023-10-31T07:35:54;10.20;99.90
59313;DHT22;45084;51.486;7.366;2023-10-31T07:38:20;10.20;99.90
59313;DHT22;45084;51.486;7.366;2023-10-31T07:40:45;10.20;99.90
59313;DHT22;45084;51.486;7.366;2023-10-31T07:43:11;10.30;99.90
59313;DHT22;45084;51.486;7.366;2023-10-31T07:45:36;10.40;99.90
59313;DHT22;45084;51.486;7.366;2023-10-31T07:48:02;10.40;99.90
59313;DHT22;45084;51.486;7.366;2023-10-31T07:50:28;10.40;99.90
59313;DHT22;45084;51.486;7.366;2023-10-31T07:52:53;10.40;99.90
59313;DHT22;45084;51.486;7.366;2023-10-31T07:55:19;10.30;99.90
59313;DHT22;45084;51.486;7.366;2023-10-31T07:57:44;10.30;99.90
59313;DHT22;45084;51.486;7.366;2023-10-31T08:00:11;10.30;99.90
59313;DHT22;45084;51.486;7.366;2023-10-31T08:02:37;10.30;99.90
59313;DHT22;45084;51.486;7.366;2023-10-31T08:05:03;10.40;99.90
59313;DHT22;45084;51.486;7.366;2023-10-31T08:07:28;10.50;99.90
59313;DHT22;45084;51.486;7.366;2023-10-31T08:09:56;10.50;99.90
59313;DHT22;45084;51.486;7.366;2023-10-31T08:12:22;10.50;99.90
59313;DHT22;45084;51.486;7.366;2023-10-31T08:14:48;10.50;99.90
59313;DHT22;45084;51.486;7.366;2023-10-31T08:17:13;10.50;99.90
59313;DHT22;45084;51.486;7.366;2023-10-31T08:19:39;10.50;99.90
59313;DHT22;45084;51.486;7.366;2023-10-31T08:22:04;10.50;99.90
59313;DHT22;45084;51.486;7.366;2023-10-31T08:24:30;10.50;99.90
59313;DHT22;45084;51.486;7.366;2023-10-31T08:26:55;10.60;99.90
59313;DHT22;45084;51.486;7.366;2023-10-31T08:29:21;10.60;99.90
59313;DHT22;45084;51.486;7.366;2023-10-31T08:31:46;10.60;99.90
59313;DHT22;45084;51.486;7.366;2023-10-31T08:34:12;10.70;99.90
59313;DHT22;45084;51.486;7.366;2023-10-31T08:36:38;10.60;99.90
59313;DHT22;45084;51.486;7.366;2023-10-31T08:39:03;10.60;99.90
59313;DHT22;45084;51.486;7.366;2023-10-31T08:41:29;10.60;99.90
59313;DHT22;45084;51.486;7.366;2023-10-31T08:43:54;10.60;99.90
59313;DHT22;45084;51.486;7.366;2023-10-31T08:46:20;10.60;99.90
59313;DHT22;45084;51.486;7.366;2023-10-31T08:48:47;10.70;99.90
59313;DHT22;45084;51.486;7.366;2023-10-31T08:51:12;10.70;99.90
59313;DHT22;45084;51.486;7.366;2023-10-31T08:53:38;10.70;99.90
59313;DHT22;45084;51.486;7.366;2023-10-31T08:56:04;10.80;99.90
59313;DHT22;45084;51.486;7.366;2023-10-31T08:58:29;10.70;99.90
59313;DHT22;45084;51.486;7.366;2023-10-31T09:00:55;10.80;99.90
59313;DHT22;45084;51.486;7.366;2023-10-31T09:03:21;10.90;99.90
59313;DHT22;45084;51.486;7.366;2023-10-31T09:05:46;10.90;99.90
59313;DHT22;45084;51.486;7.366;2023-10-31T09:08:12;10.80;99.90
59313;DHT22;45084;51.486;7.366;2023-10-31T09:10:37;10.80;99.90
59313;DHT22;45084;51.486;7.366;2023-10-31T09:13:08;10.70;99.90
59313;DHT22;45084;51.486;7.366;2023-10-31T09:15:35;10.90;99.90
59313;DHT22;45084;51.486;7.366;2023-10-31T09:18:01;11.10;99.90
59313;DHT22;45084;51.486;7.366;2023-10-31T09:20:27;11.20;99.90
59313;DHT22;45084;51.486;7.366;2023-10-31T09:22:53;11.40;99.90
59313;DHT22;45084;51.486;7.366;2023-10-31T09:25:18;11.40;99.90
59313;DHT22;45084;51.486;7.366;2023-10-31T09:27:44;11.40;99.90
59313;DHT22;45084;51.486;7.366;2023-10-31T09:30:10;11.50;99.90
59313;DHT22;45084;51.486;7.366;2023-10-31T09:32:36;11.50;99.90
59313;DHT22;45084;51.486;7.366;2023-10-31T09:35:01;11.60;99.90
59313;DHT22;45084;51.486;7.366;2023-10-31T09:37:27;11.50;99.90
59313;DHT22;45084;51.486;7.366;2023-10-31T09:39:53;11.50;99.90
59313;DHT22;45084;51.486;7.366;2023-10-31T09:42:18;11.30;99.90
59313;DHT22;45084;51.486;7.366;2023-10-31T09:44:44;11.30;99.90
59313;DHT22;45084;51.486;7.366;2023-10-31T09:47:10;11.30;99.90
59313;DHT22;45084;51.486;7.366;2023-10-31T09:49:36;11.40;99.90
59313;DHT22;45084;51.486;7.366;2023-10-31T09:52:01;11.40;99.90
59313;DHT22;45084;51.486;7.366;2023-10-31T09:54:29;11.30;99.90
59313;DHT22;45084;51.486;7.366;2023-10-31T09:56:55;11.30;99.90
59313;DHT22;45084;51.486;7.366;2023-10-31T09:59:21;11.30;99.90
59313;DHT22;45084;51.486;7.366;2023-10-31T10:01:46;11.30;99.90
59313;DHT22;45084;51.486;7.366;2023-10-31T10:04:12;11.30;99.90
59313;DHT22;45084;51.486;7.366;2023-10-31T10:07:00;11.30;99.90
59313;DHT22;45084;51.486;7.366;2023-10-31T10:09:27;11.30;99.90
59313;DHT22;45084;51.486;7.366;2023-10-31T10:11:53;11.30;99.90
59313;DHT22;45084;51.486;7.366;2023-10-31T10:14:19;11.30;99.90
59313;DHT22;45084;51.486;7.366;2023-10-31T10:16:44;11.40;99.90
59313;DHT22;45084;51.486;7.366;2023-10-31T10:19:18;11.70;99.90
59313;DHT22;45084;51.486;7.366;2023-10-31T10:21:52;11.80;99.90
59313;DHT22;45084;51.486;7.366;2023-10-31T10:24:19;12.00;99.90
59313;DHT22;45084;51.486;7.366;2023-10-31T10:26:46;12.00;99.90
59313;DHT22;45084;51.486;7.366;2023-10-31T10:29:12;11.90;99.90
59313;DHT22;45084;51.486;7.366;2023-10-31T10:31:37;11.80;99.90
59313;DHT22;45084;51.486;7.366;2023-10-31T10:34:03;11.70;99.90
59313;DHT22;45084;51.486;7.366;2023-10-31T10:36:29;11.60;99.90
59313;DHT22;45084;51.486;7.366;2023-10-31T10:38:57;11.50;99.90
59313;DHT22;45084;51.486;7.366;2023-10-31T10:41:26;11.50;99.90
59313;DHT22;45084;51.486;7.366;2023-10-31T10:44:04;11.50;99.90
59313;DHT22;45084;51.486;7.366;2023-10-31T10:46:34;11.50;99.90
59313;DHT22;45084;51.486;7.366;2023-10-31T10:49:04;11.50;99.90
59313;DHT22;45084;51.486;7.366;2023-10-31T10:52:01;11.40;99.90
59313;DHT22;45084;51.486;7.366;2023-10-31T10:54:45;11.50;99.90
59313;DHT22;45084;51.486;7.366;2023-10-31T10:57:42;11.50;99.90
59313;DHT22;45084;51.486;7.366;2023-10-31T11:00:10;11.40;99.90
59313;DHT22;45084;51.486;7.366;2023-10-31T11:02:39;11.50;99.90
59313;DHT22;45084;51.486;7.366;2023-10-31T11:05:08;11.40;99.90
59313;DHT22;45084;51.486;7.366;2023-10-31T11:07:36;11.40;99.90
59313;DHT22;45084;51.486;7.366;2023-10-31T11:10:03;11.30;99.90
59313;DHT22;45084;51.486;7.366;2023-10-31T11:12:30;11.20;99.90
59313;DHT22;45084;51.486;7.366;2023-10-31T11:14:57;11.20;99.90
59313;DHT22;45084;51.486;7.366;2023-10-31T11:17:26;11.20;99.90
59313;DHT22;45084;51.486;7.366;2023-10-31T11:19:54;11.30;99.90
59313;DHT22;45084;51.486;7.366;2023-10-31T11:22:20;11.30;99.90
59313;DHT22;45084;51.486;7.366;2023-10-31T11:24:49;11.30;99.90
59313;DHT22;45084;51.486;7.366;2023-10-31T11:27:15;11.40;99.90
59313;DHT22;45084;51.486;7.366;2023-10-31T11:29:41;11.40;99.90
59313;DHT22;45084;51.486;7.366;2023-10-31T11:32:11;11.40;99.90
59313;DHT22;45084;51.486;7.366;2023-10-31T11:34:39;11.50;99.90
59313;DHT22;45084;51.486;7.366;2023-10-31T11:37:26;11.50;99.90
59313;DHT22;45084;51.486;7.366;2023-10-31T11:42:38;11.70;99.90
59313;DHT22;45084;51.486;7.366;2023-10-31T11:45:04;11.70;99.90
59313;DHT22;45084;51.486;7.366;2023-10-31T11:47:49;11.80;99.90
59313;DHT22;45084;51.486;7.366;2023-10-31T11:50:16;11.80;99.90
59313;DHT22;45084;51.486;7.366;2023-10-31T11:52:42;11.80;99.90
59313;DHT22;45084;51.486;7.366;2023-10-31T11:55:11;11.90;99.90
59313;DHT22;45084;51.486;7.366;2023-10-31T11:57:38;11.80;99.90
59313;DHT22;45084;51.486;7.366;2023-10-31T12:00:05;11.80;99.90
59313;DHT22;45084;51.486;7.366;2023-10-31T12:02:31;11.90;99.90
59313;DHT22;45084;51.486;7.366;2023-10-31T12:05:10;11.90;99.90
59313;DHT22;45084;51.486;7.366;2023-10-31T12:07:45;12.00;99.90
59313;DHT22;45084;51.486;7.366;2023-10-31T12:10:11;12.20;99.90
59313;DHT22;45084;51.486;7.366;2023-10-31T12:12:37;12.30;99.90
59313;DHT22;45084;51.486;7.366;2023-10-31T12:15:09;12.40;99.90
59313;DHT22;45084;51.486;7.366;2023-10-31T12:17:35;12.50;99.90
59313;DHT22;45084;51.486;7.366;2023-10-31T12:20:08;12.50;99.90
59313;DHT22;45084;51.486;7.366;2023-10-31T12:22:34;12.70;99.90
59313;DHT22;45084;51.486;7.366;2023-10-31T12:25:04;12.70;99.90
59313;DHT22;45084;51.486;7.366;2023-10-31T12:27:49;12.60;99.90
59313;DHT22;45084;51.486;7.366;2023-10-31T12:30:17;12.60;99.90
59313;DHT22;45084;51.486;7.366;2023-10-31T12:32:44;12.60;99.90
59313;DHT22;45084;51.486;7.366;2023-10-31T12:35:16;12.50;99.90
59313;DHT22;45084;51.486;7.366;2023-10-31T12:37:49;12.50;99.90
59313;DHT22;45084;51.486;7.366;2023-10-31T12:40:19;12.70;99.90
59313;DHT22;45084;51.486;7.366;2023-10-31T12:42:47;13.00;99.90
59313;DHT22;45084;51.486;7.366;2023-10-31T12:45:13;13.30;99.90
59313;DHT22;45084;51.486;7.366;2023-10-31T12:47:39;13.20;99.90
59313;DHT22;45084;51.486;7.366;2023-10-31T12:50:06;13.20;99.90
59313;DHT22;45084;51.486;7.366;2023-10-31T12:52:46;13.20;99.90
59313;DHT22;45084;51.486;7.366;2023-10-31T12:55:14;13.00;99.90
59313;DHT22;45084;51.486;7.366;2023-10-31T12:57:40;13.00;99.90
59313;DHT22;45084;51.486;7.366;2023-10-31T13:00:06;12.90;99.90
59313;DHT22;45084;51.486;7.366;2023-10-31T13:02:35;12.70;99.90
59313;DHT22;45084;51.486;7.366;2023-10-31T13:05:12;12.60;99.90
59313;DHT22;45084;51.486;7.366;2023-10-31T13:07:39;12.50;99.90
59313;DHT22;45084;51.486;7.366;2023-10-31T13:10:06;12.50;99.90
59313;DHT22;45084;51.486;7.366;2023-10-31T13:12:31;12.50;99.90
59313;DHT22;45084;51.486;7.366;2023-10-31T13:14:57;12.50;99.90
59313;DHT22;45084;51.486;7.366;2023-10-31T13:17:23;12.50;99.90
59313;DHT22;45084;51.486;7.366;2023-10-31T13:19:48;12.60;99.90
59313;DHT22;45084;51.486;7.366;2023-10-31T13:22:14;12.60;99.90
59313;DHT22;45084;51.486;7.366;2023-10-31T13:24:40;12.70;99.90
59313;DHT22;45084;51.486;7.366;2023-10-31T13:27:06;12.70;99.90
59313;DHT22;45084;51.486;7.366;2023-10-31T13:29:33;12.70;99.90
59313;DHT22;45084;51.486;7.366;2023-10-31T13:31:59;12.70;99.90
59313;DHT22;45084;51.486;7.366;2023-10-31T13:34:24;12.60;99.90
59313;DHT22;45084;51.486;7.366;2023-10-31T13:36:50;12.60;99.90
59313;DHT22;45084;51.486;7.366;2023-10-31T13:39:16;12.60;99.90
59313;DHT22;45084;51.486;7.366;2023-10-31T13:41:42;12.60;99.90
59313;DHT22;45084;51.486;7.366;2023-10-31T13:44:08;12.60;99.90
59313;DHT22;45084;51.486;7.366;2023-10-31T13:46:33;12.50;99.90
59313;DHT22;45084;51.486;7.366;2023-10-31T13:48:59;12.50;99.90
59313;DHT22;45084;51.486;7.366;2023-10-31T13:51:24;12.40;99.90
59313;DHT22;45084;51.486;7.366;2023-10-31T13:53:50;12.50;99.90
59313;DHT22;45084;51.486;7.366;2023-10-31T13:56:16;12.60;99.90
59313;DHT22;45084;51.486;7.366;2023-10-31T13:58:42;12.50;99.90
59313;DHT22;45084;51.486;7.366;2023-10-31T14:01:08;12.40;99.90
59313;DHT22;45084;51.486;7.366;2023-10-31T14:03:33;12.20;99.90
59313;DHT22;45084;51.486;7.366;2023-10-31T14:05:59;12.20;99.90
59313;DHT22;45084;51.486;7.366;2023-10-31T14:08:25;12.20;99.90
59313;DHT22;45084;51.486;7.366;2023-10-31T14:10:50;12.20;99.90
59313;DHT22;45084;51.486;7.366;2023-10-31T14:13:16;12.10;99.90
59313;DHT22;45084;51.486;7.366;2023-10-31T14:15:42;12.10;99.90
59313;DHT22;45084;51.486;7.366;2023-10-31T14:18:08;12.10;99.90
59313;DHT22;45084;51.486;7.366;2023-10-31T14:20:33;12.10;99.90
59313;DHT22;45084;51.486;7.366;2023-10-31T14:22:59;12.00;99.90
59313;DHT22;45084;51.486;7.366;2023-10-31T14:25:24;11.90;99.90
59313;DHT22;45084;51.486;7.366;2023-10-31T14:27:50;12.00;99.90
59313;DHT22;45084;51.486;7.366;2023-10-31T14:30:15;11.80;99.90
59313;DHT22;45084;51.486;7.366;2023-10-31T14:32:41;11.90;99.90
59313;DHT22;45084;51.486;7.366;2023-10-31T14:35:07;11.90;99.90
59313;DHT22;45084;51.486;7.366;2023-10-31T14:37:33;11.90;99.90
59313;DHT22;45084;51.486;7.366;2023-10-31T14:40:00;12.00;99.90
59313;DHT22;45084;51.486;7.366;2023-10-31T14:42:26;11.90;99.90
59313;DHT22;45084;51.486;7.366;2023-10-31T14:44:51;11.90;99.90
59313;DHT22;45084;51.486;7.366;2023-10-31T14:47:17;11.90;99.90
59313;DHT22;45084;51.486;7.366;2023-10-31T14:49:44;11.80;99.90
59313;DHT22;45084;51.486;7.366;2023-10-31T14:52:09;11.70;99.90
59313;DHT22;45084;51.486;7.366;2023-10-31T14:54:35;11.60;99.90
59313;DHT22;45084;51.486;7.366;2023-10-31T14:57:02;11.60;99.90
59313;DHT22;45084;51.486;7.366;2023-10-31T14:59:28;11.50;99.90
59313;DHT22;45084;51.486;7.366;2023-10-31T15:01:53;11.50;99.90
59313;DHT22;45084;51.486;7.366;2023-10-31T15:04:19;11.50;99.90
59313;DHT22;45084;51.486;7.366;2023-10-31T15:06:44;11.50;99.90
59313;DHT22;45084;51.486;7.366;2023-10-31T15:09:10;11.50;99.90
59313;DHT22;45084;51.486;7.366;2023-10-31T15:11:36;11.50;99.90
59313;DHT22;45084;51.486;7.366;2023-10-31T15:14:02;11.40;99.90
59313;DHT22;45084;51.486;7.366;2023-10-31T15:16:28;11.30;99.90
59313;DHT22;45084;51.486;7.366;2023-10-31T15:18:54;11.30;99.90
59313;DHT22;45084;51.486;7.366;2023-10-31T15:21:20;11.10;99.90
59313;DHT22;45084;51.486;7.366;2023-10-31T15:23:46;11.10;99.90
59313;DHT22;45084;51.486;7.366;2023-10-31T15:26:12;11.00;99.90
59313;DHT22;45084;51.486;7.366;2023-10-31T15:28:42;10.80;99.90
59313;DHT22;45084;51.486;7.366;2023-10-31T15:31:08;10.90;99.90
59313;DHT22;45084;51.486;7.366;2023-10-31T15:33:34;11.00;99.90
59313;DHT22;45084;51.486;7.366;2023-10-31T15:36:00;10.90;99.90